Grande Italia — IBTF — position and weather

sailwx.info

Track history (hours):
 
Tides and Currents Weather Stations Pressure Air Temp Water Temp Dewpoint Dewpoint Depression Visibility Wind Speed Wind Dir Waves Ship Positions

Grande Italia

Last reported at 2016-May-29 16:14 UTC. Time now 2016-May-29 17:23 UTC.
Position N 38°05' E 020°18'.

Length 177 m; draft 7.6 m.

Type: Ship (hazmat cat A). MMSI: 247039300.

Date/timePositionNaut miles runAvg speedWind from/ knotsBaromVisibWave heightAir tempDewpointWater temp
2016-May-29 16:14N 38°05' E 020°18'1116.6
2016-May-29 15:33N 37°55' E 020°25'3316.5
2016-May-29 13:32N 37°26' E 020°44'14516.1
2016-May-29 04:33N 36°01' E 023°11'1817.8
2016-May-29 03:33N 35°57' E 023°32'1817.9
2016-May-29 02:33N 35°53' E 023°54'  
2016-May-26 22:27N 32°01' E 034°32'1415.8
2016-May-26 21:34N 32°15' E 034°36'1616.0
2016-May-26 20:34N 32°30' E 034°42'1616.3
2016-May-26 19:34N 32°46' E 034°47'1111.3
2016-May-26 18:34N 32°52' E 034°58'4 3.5
2016-May-26 17:31N 32°49' E 035°00'0 0.0
2016-May-26 16:31N 32°49' E 035°00'0 0.0
2016-May-26 15:31N 32°49' E 035°00'0 0.0
2016-May-26 14:31N 32°49' E 035°00'0 0.0
2016-May-26 13:31N 32°49' E 035°00'0 0.0
2016-May-26 12:31N 32°49' E 035°00'0 0.0
2016-May-26 11:31N 32°49' E 035°00'0 0.0
2016-May-26 10:31N 32°49' E 035°00'0 0.0
2016-May-26 09:31N 32°49' E 035°00'0 0.0
2016-May-26 08:31N 32°49' E 035°00'0 0.0
2016-May-26 07:31N 32°49' E 035°00'0 0.0
2016-May-26 06:31N 32°49' E 035°00'0 0.0
2016-May-26 05:31N 32°49' E 035°00'0 0.0
2016-May-26 04:31N 32°49' E 035°00'0 0.0
2016-May-26 03:31N 32°49' E 035°00'2 1.7
2016-May-26 02:33N 32°51' E 035°01'1312.6
2016-May-26 01:33N 32°55' E 034°46'1615.9
2016-May-26 00:34N 32°57' E 034°28'1615.8
2016-May-25 23:33N 33°00' E 034°09'1615.8
2016-May-25 22:34N 33°05' E 033°51'1616.0
2016-May-25 21:33N 33°10' E 033°33'1615.8
2016-May-25 20:33N 33°15' E 033°15'1715.5
2016-May-25 19:29N 33°21' E 032°56'1415.7
2016-May-25 18:34N 33°26' E 032°40'1715.7
2016-May-25 17:30N 33°33' E 032°22'1515.4
2016-May-25 16:33N 33°38' E 032°06'  
2016-May-20 15:18N 45°18' E 013°13'1417.6
2016-May-20 14:31N 45°05' E 013°18'1717.9
2016-May-20 13:33N 44°50' E 013°30'  
Track history (hours):
 
Tides and Currents Weather Stations Pressure Air Temp Water Temp Dewpoint Dewpoint Depression Visibility Wind Speed Wind Dir Waves Ship Positions

Grande Italia

Last reported at 2016-May-29 16:14 UTC. Time now 2016-May-29 17:23 UTC.
Position N 38°05' E 020°18'.

Length 177 m; draft 7.6 m.

Type: Ship (hazmat cat A). MMSI: 247039300.

Date/timePositionNaut miles runAvg speedWind from/ knotsBaromVisibWave heightAir tempDewpointWater temp
2016-May-29 16:14N 38°05' E 020°18'1116.6
2016-May-29 15:33N 37°55' E 020°25'3316.5
2016-May-29 13:32N 37°26' E 020°44'14516.1
2016-May-29 04:33N 36°01' E 023°11'1817.8
2016-May-29 03:33N 35°57' E 023°32'1817.9
2016-May-29 02:33N 35°53' E 023°54'  
2016-May-26 22:27N 32°01' E 034°32'1415.8
2016-May-26 21:34N 32°15' E 034°36'1616.0
2016-May-26 20:34N 32°30' E 034°42'1616.3
2016-May-26 19:34N 32°46' E 034°47'1111.3
2016-May-26 18:34N 32°52' E 034°58'4 3.5
2016-May-26 17:31N 32°49' E 035°00'0 0.0
2016-May-26 16:31N 32°49' E 035°00'0 0.0
2016-May-26 15:31N 32°49' E 035°00'0 0.0
2016-May-26 14:31N 32°49' E 035°00'0 0.0
2016-May-26 13:31N 32°49' E 035°00'0 0.0
2016-May-26 12:31N 32°49' E 035°00'0 0.0
2016-May-26 11:31N 32°49' E 035°00'0 0.0
2016-May-26 10:31N 32°49' E 035°00'0 0.0
2016-May-26 09:31N 32°49' E 035°00'0 0.0
2016-May-26 08:31N 32°49' E 035°00'0 0.0
2016-May-26 07:31N 32°49' E 035°00'0 0.0
2016-May-26 06:31N 32°49' E 035°00'0 0.0
2016-May-26 05:31N 32°49' E 035°00'0 0.0
2016-May-26 04:31N 32°49' E 035°00'0 0.0
2016-May-26 03:31N 32°49' E 035°00'2 1.7
2016-May-26 02:33N 32°51' E 035°01'1312.6
2016-May-26 01:33N 32°55' E 034°46'1615.9
2016-May-26 00:34N 32°57' E 034°28'1615.8
2016-May-25 23:33N 33°00' E 034°09'1615.8
2016-May-25 22:34N 33°05' E 033°51'1616.0
2016-May-25 21:33N 33°10' E 033°33'1615.8
2016-May-25 20:33N 33°15' E 033°15'1715.5
2016-May-25 19:29N 33°21' E 032°56'1415.7
2016-May-25 18:34N 33°26' E 032°40'1715.7
2016-May-25 17:30N 33°33' E 032°22'1515.4
2016-May-25 16:33N 33°38' E 032°06'  
2016-May-20 15:18N 45°18' E 013°13'1417.6
2016-May-20 14:31N 45°05' E 013°18'1717.9
2016-May-20 13:33N 44°50' E 013°30'  

Dump ship's entire track history